Time;durP1;ratioP1;P1;durP2;ratioP2;P2;SDS_P1;SDS_P2;PMS_P1;PMS_P2;Temp;Humidity;BMP_temperature;BMP_pressure;BME280_temperature;BME280_humidity;BME280_pressure;Samples;Min_cycle;Max_cycle;Signal;HPM_P1;HPM_P2
2022/10/07 00:02:31;;;;;;;8.07;7.43;;;;;;;20.53;39.47;96130.00;6123966;28;105427;-71
2022/10/07 00:05:34;;;;;;;7.30;6.70;;;;;;;20.51;39.42;96132.94;6131626;28;103391;-73
2022/10/07 00:08:39;;;;;;;7.00;6.40;;;;;;;20.50;39.34;96133.19;6135576;28;103174;-73
2022/10/07 00:11:43;;;;;;;7.23;6.63;;;;;;;20.51;39.16;96134.81;6130097;28;103165;-72
2022/10/07 00:14:46;;;;;;;7.23;6.63;;;;;;;20.52;39.04;96131.06;6128067;28;102876;-72
2022/10/07 00:17:49;;;;;;;7.37;6.67;;;;;;;20.51;39.38;96140.13;6134267;28;103410;-71
2022/10/07 00:20:52;;;;;;;7.83;7.23;;;;;;;20.51;39.43;96132.13;6135170;28;103009;-72
2022/10/07 00:23:55;;;;;;;7.10;6.50;;;;;;;20.51;39.24;96130.28;6125846;28;104646;-72
2022/10/07 00:27:00;;;;;;;7.60;6.90;;;;;;;20.51;39.01;96126.81;6133680;28;102998;-73
2022/10/07 00:30:03;;;;;;;7.60;7.00;;;;;;;20.50;39.41;96127.84;6134603;28;103107;-73
2022/10/07 00:33:06;;;;;;;7.40;6.70;;;;;;;20.50;39.52;96128.69;6134604;28;103175;-72
2022/10/07 00:36:12;;;;;;;7.80;7.20;;;;;;;20.49;39.55;96121.75;6122414;28;103302;-72
2022/10/07 00:39:18;;;;;;;7.50;6.90;;;;;;;20.48;39.57;96114.84;6134480;28;103235;-73
2022/10/07 00:42:23;;;;;;;7.30;6.67;;;;;;;20.47;39.73;96117.78;6126785;28;103777;-72
2022/10/07 00:45:28;;;;;;;7.63;6.93;;;;;;;20.47;39.49;96113.25;6134878;28;103507;-73
2022/10/07 00:48:34;;;;;;;7.60;6.80;;;;;;;20.47;39.60;96117.78;6123159;28;103410;-70
2022/10/07 00:51:38;;;;;;;6.83;6.23;;;;;;;20.46;39.63;96113.50;6129385;28;103199;-73
2022/10/07 00:54:41;;;;;;;6.60;6.00;;;;;;;20.46;39.17;96111.66;6134544;28;103314;-74
2022/10/07 00:57:48;;;;;;;6.80;6.20;;;;;;;20.47;39.49;96112.44;6124960;28;103268;-73
2022/10/07 01:00:52;;;;;;;6.97;6.37;;;;;;;20.44;39.63;96108.47;6132600;28;102852;-70
2022/10/07 01:03:55;;;;;;;5.87;5.37;;;;;;;20.46;39.51;96105.53;6134476;28;103202;-72
2022/10/07 01:06:58;;;;;;;7.30;6.47;;;;;;;20.45;39.64;96110.06;6133397;28;105902;-73
2022/10/07 01:10:02;;;;;;;6.80;6.20;;;;;;;20.45;39.28;96110.06;6124687;28;104033;-73
2022/10/07 01:13:14;;;;;;;6.73;6.13;;;;;;;20.47;39.53;96112.44;6134014;28;103377;-72
2022/10/07 01:16:28;;;;;;;6.00;5.50;;;;;;;20.45;39.45;96114.59;6126418;28;106348;-71
2022/10/07 01:19:53;;;;;;;6.13;5.63;;;;;;;20.44;39.58;96105.81;6130945;28;103208;-73
2022/10/07 01:23:18;;;;;;;5.73;5.23;;;;;;;20.42;39.48;96099.97;6126925;28;103260;-72
2022/10/07 01:26:45;;;;;;;5.50;5.10;;;;;;;20.46;39.23;96106.34;6132492;28;103081;-72
2022/10/07 01:29:54;;;;;;;5.73;5.30;;;;;;;20.41;39.46;96100.25;6134268;28;103111;-70
2022/10/07 01:33:01;;;;;;;5.80;5.20;;;;;;;20.42;39.46;96101.84;6122200;28;103271;-72
2022/10/07 01:36:09;;;;;;;5.17;4.67;;;;;;;20.41;39.17;96103.69;6133673;28;103151;-72
2022/10/07 01:39:16;;;;;;;5.03;4.63;;;;;;;20.41;39.33;96095.72;6133542;28;105334;-72
2022/10/07 01:42:21;;;;;;;5.80;5.20;;;;;;;20.42;39.14;96101.84;6131917;28;103224;-70
2022/10/07 01:45:28;;;;;;;5.50;5.00;;;;;;;20.39;39.24;96094.41;6125676;28;103116;-73
2022/10/07 01:48:31;;;;;;;4.83;4.43;;;;;;;20.40;39.18;96099.44;6134371;28;103228;-73
2022/10/07 01:51:38;;;;;;;4.77;4.37;;;;;;;20.42;39.20;96093.84;6132451;28;103276;-69
2022/10/07 01:54:54;;;;;;;5.07;4.63;;;;;;;20.39;39.29;96089.09;6122878;28;104203;-71
2022/10/07 01:58:12;;;;;;;4.73;4.33;;;;;;;20.37;39.32;96086.69;6134016;28;103205;-72
2022/10/07 02:01:20;;;;;;;5.60;5.10;;;;;;;20.38;39.43;96084.84;6133345;28;103229;-71
2022/10/07 02:04:33;;;;;;;4.53;4.23;;;;;;;20.36;39.28;96089.63;6132711;28;103071;-73
2022/10/07 02:07:46;;;;;;;5.00;4.60;;;;;;;20.35;39.16;96088.03;6123297;28;104455;-73
2022/10/07 02:11:02;;;;;;;3.77;3.47;;;;;;;20.37;39.33;96085.91;6133183;28;103555;-72
2022/10/07 02:14:11;;;;;;;4.40;4.00;;;;;;;20.36;39.30;96092.28;6133660;28;106385;-73
2022/10/07 02:17:20;;;;;;;4.73;4.40;;;;;;;20.36;39.31;96102.91;6127534;28;103748;-73
2022/10/07 02:20:26;;;;;;;4.40;4.00;;;;;;;20.35;39.40;96103.97;6128117;28;103199;-73
2022/10/07 02:23:33;;;;;;;4.60;4.20;;;;;;;20.28;39.11;96091.75;6133325;28;103445;-73
2022/10/07 02:26:37;;;;;;;4.37;4.07;;;;;;;20.32;39.16;96095.44;6133310;28;103639;-73
2022/10/07 02:29:43;;;;;;;4.43;4.03;;;;;;;20.36;39.05;96098.41;6122486;28;103107;-72
2022/10/07 02:32:52;;;;;;;4.00;3.70;;;;;;;20.35;39.23;96098.66;6133299;28;103039;-73
2022/10/07 02:35:59;;;;;;;4.63;3.90;;;;;;;20.35;39.00;96094.16;6132765;28;104110;-72
2022/10/07 02:39:03;;;;;;;5.17;4.00;;;;;;;20.32;39.27;96095.44;6133363;28;103030;-73
2022/10/07 02:42:13;;;;;;;3.73;3.43;;;;;;;20.32;38.89;96095.44;6120325;28;103579;-73
2022/10/07 02:45:22;;;;;;;3.60;3.30;;;;;;;20.32;39.29;96100.78;6132962;28;103649;-73
2022/10/07 02:48:33;;;;;;;3.83;3.47;;;;;;;20.31;39.31;96098.38;6126152;28;102706;-71
2022/10/07 02:51:43;;;;;;;3.80;3.50;;;;;;;20.34;39.14;96107.72;6125931;28;103085;-71
2022/10/07 02:54:51;;;;;;;3.83;3.40;;;;;;;20.30;39.31;96108.22;6130506;28;106152;-72
2022/10/07 02:58:00;;;;;;;3.77;3.53;;;;;;;20.30;39.14;96107.41;6133062;28;102910;-72
2022/10/07 03:01:09;;;;;;;3.37;3.07;;;;;;;20.30;39.07;96097.59;6131985;28;102869;-71
2022/10/07 03:04:12;;;;;;;4.53;3.63;;;;;;;20.29;39.38;96103.97;6119375;28;102994;-72
2022/10/07 03:07:16;;;;;;;3.50;3.20;;;;;;;20.28;39.18;96104.25;6136680;28;103307;-72
2022/10/07 03:10:19;;;;;;;3.70;3.40;;;;;;;20.33;39.21;96112.19;6128805;28;107542;-72
2022/10/07 03:13:23;;;;;;;3.37;3.10;;;;;;;20.34;39.13;96102.38;6136047;28;104461;-71
2022/10/07 03:16:28;;;;;;;3.73;3.43;;;;;;;20.37;39.24;96107.16;6125247;28;103152;-72
2022/10/07 03:19:31;;;;;;;3.40;3.10;;;;;;;20.37;39.18;96107.16;6135786;28;102820;-72
2022/10/07 03:22:34;;;;;;;3.83;3.53;;;;;;;20.36;39.54;96100.25;6136246;28;103162;-73
2022/10/07 03:25:37;;;;;;;3.43;3.13;;;;;;;20.37;39.11;96102.66;6131670;28;102874;-73
2022/10/07 03:28:40;;;;;;;5.20;3.50;;;;;;;20.37;39.16;96096.53;6129910;28;103737;-69
2022/10/07 03:31:45;;;;;;;5.50;3.10;;;;;;;20.41;39.24;96092.25;6135743;28;104363;-67
2022/10/07 03:34:48;;;;;;;3.80;3.10;;;;;;;20.42;39.27;96097.31;6116259;28;102934;-67
2022/10/07 03:37:52;;;;;;;3.53;3.27;;;;;;;20.42;39.19;96093.84;6113886;28;103121;-68
2022/10/07 03:40:55;;;;;;;3.33;3.03;;;;;;;20.42;39.22;96094.66;6135879;28;102894;-68
2022/10/07 03:43:58;;;;;;;3.27;2.97;;;;;;;20.41;39.51;96093.06;6133938;28;103051;-68
2022/10/07 03:47:03;;;;;;;3.43;3.13;;;;;;;20.42;39.56;96101.84;6136605;28;106328;-68
2022/10/07 03:50:12;;;;;;;4.80;3.83;;;;;;;20.43;39.56;96096.25;6121026;28;103040;-68
2022/10/07 03:53:15;;;;;;;5.70;3.10;;;;;;;20.41;39.61;96094.94;6133753;28;103183;-67
2022/10/07 03:56:18;;;;;;;9.10;4.00;;;;;;;20.39;39.33;96099.72;6135512;28;104332;-67
2022/10/07 03:59:22;;;;;;;13.20;6.33;;;;;;;20.37;39.33;96101.84;6135439;28;103145;-68
2022/10/07 04:02:27;;;;;;;3.87;3.50;;;;;;;20.37;39.87;96100.00;6122830;28;103101;-67
2022/10/07 04:05:30;;;;;;;7.20;4.37;;;;;;;20.39;40.02;96103.16;6133102;28;103124;-69
2022/10/07 04:08:34;;;;;;;5.97;3.77;;;;;;;20.39;39.94;96105.03;6135051;28;104960;-66
2022/10/07 04:11:39;;;;;;;13.37;4.93;;;;;;;20.40;40.19;96102.09;6131131;28;103408;-71
2022/10/07 04:14:42;;;;;;;9.93;4.37;;;;;;;20.42;40.07;96093.84;6128387;28;103055;-71
2022/10/07 04:17:48;;;;;;;5.20;4.50;;;;;;;20.43;40.08;96096.25;6133214;28;103038;-70
2022/10/07 04:20:51;;;;;;;11.20;4.20;;;;;;;20.43;40.42;96090.94;6131112;28;103378;-68
2022/10/07 04:23:54;;;;;;;4.77;4.13;;;;;;;20.40;40.51;96099.44;6122910;28;104085;-69
2022/10/07 04:26:57;;;;;;;8.50;4.13;;;;;;;20.40;40.41;96106.63;6134283;28;105825;-69
2022/10/07 04:30:01;;;;;;;9.13;5.30;;;;;;;20.43;40.17;96100.75;6135810;28;102830;-69
2022/10/07 04:33:06;;;;;;;5.87;4.53;;;;;;;20.42;40.23;96099.19;6136032;28;102867;-69
2022/10/07 04:36:11;;;;;;;7.27;4.33;;;;;;;20.42;40.16;96101.84;6125608;28;103176;-69
2022/10/07 04:39:14;;;;;;;5.00;3.97;;;;;;;20.42;40.22;96099.19;6134273;28;103450;-68
2022/10/07 04:45:35;;;;;;;6.53;4.27;;;;;;;20.41;39.86;96098.38;6129049;28;103324;-66
2022/10/07 04:48:40;;;;;;;8.60;4.50;;;;;;;20.40;39.91;96101.31;6126307;28;104872;-67
2022/10/07 04:51:43;;;;;;;7.60;4.70;;;;;;;20.40;40.01;96106.63;6132449;28;103230;-67
2022/10/07 04:54:46;;;;;;;9.17;5.10;;;;;;;20.40;40.05;96104.75;6134239;28;103273;-67
2022/10/07 04:57:49;;;;;;;5.10;4.10;;;;;;;20.40;39.91;96106.63;6124427;28;103261;-68
2022/10/07 05:00:54;;;;;;;4.20;3.80;;;;;;;20.39;39.86;96103.16;6134247;28;103173;-68
2022/10/07 05:03:59;;;;;;;6.97;4.70;;;;;;;20.39;39.88;96100.50;6134714;28;103434;-67
2022/10/07 05:07:02;;;;;;;7.67;4.70;;;;;;;20.37;39.30;96107.16;6134890;28;103089;-68
2022/10/07 05:10:06;;;;;;;7.80;4.47;;;;;;;20.32;39.57;96099.97;6123764;28;103062;-68
2022/10/07 05:13:12;;;;;;;5.30;4.30;;;;;;;20.39;39.65;96107.69;6134558;28;103379;-69
2022/10/07 05:16:15;;;;;;;5.70;4.63;;;;;;;20.39;39.70;96120.97;6134048;28;103305;-68
2022/10/07 05:19:20;;;;;;;6.70;4.63;;;;;;;20.39;39.69;96118.31;6133986;28;103424;-69
2022/10/07 05:22:23;;;;;;;5.20;4.63;;;;;;;20.39;39.65;96131.63;6123535;28;103832;-69
2022/10/07 05:25:26;;;;;;;5.90;4.77;;;;;;;20.38;39.19;96130.03;6134182;28;103145;-69
2022/10/07 05:28:29;;;;;;;7.60;4.70;;;;;;;20.37;39.57;96139.88;6134110;28;103381;-67
2022/10/07 05:31:32;;;;;;;5.20;4.70;;;;;;;20.35;39.64;96138.53;6128806;28;103985;-68
2022/10/07 05:34:37;;;;;;;7.50;4.43;;;;;;;20.33;39.41;96149.41;6129268;28;103495;-68
2022/10/07 05:37:40;;;;;;;5.70;4.57;;;;;;;20.37;39.59;96136.41;6134430;28;103144;-69
2022/10/07 05:40:43;;;;;;;5.50;4.07;;;;;;;20.36;39.58;96148.91;6134443;28;103529;-68
2022/10/07 05:43:47;;;;;;;6.50;4.30;;;;;;;20.37;39.63;96144.38;6123128;28;103143;-68
2022/10/07 05:46:50;;;;;;;5.80;4.60;;;;;;;20.38;39.52;96146.78;6133879;28;103000;-68
2022/10/07 05:49:55;;;;;;;4.80;4.27;;;;;;;20.39;39.56;96148.38;6134114;28;103270;-67
2022/10/07 05:52:59;;;;;;;4.83;4.33;;;;;;;20.39;39.75;96147.56;6134016;28;103461;-70
2022/10/07 05:56:05;;;;;;;5.80;4.93;;;;;;;20.40;39.46;96143.84;6124005;28;103738;-71
2022/10/07 05:59:09;;;;;;;4.97;4.57;;;;;;;20.40;39.45;96147.28;6133746;28;103407;-67
2022/10/07 06:02:14;;;;;;;5.63;4.30;;;;;;;20.44;39.35;96153.66;6133898;28;103066;-67
2022/10/07 06:05:22;;;;;;;8.37;4.87;;;;;;;20.47;39.56;96149.66;6128607;28;104471;-68
2022/10/07 06:08:25;;;;;;;5.10;4.30;;;;;;;20.52;39.29;96152.34;6129129;28;103451;-67
2022/10/07 06:14:49;;;;;;;6.47;4.70;;;;;;;20.63;39.19;96154.69;6134245;28;104314;-69
2022/10/07 06:17:52;;;;;;;5.60;4.60;;;;;;;20.71;38.83;96150.72;6122627;28;103140;-66
2022/10/07 06:20:58;;;;;;;7.47;5.50;;;;;;;20.81;38.63;96144.56;6133661;28;103141;-67
2022/10/07 06:24:01;;;;;;;7.33;4.80;;;;;;;20.88;38.32;96151.19;6134544;28;103790;-68
2022/10/07 06:27:06;;;;;;;7.50;4.90;;;;;;;21.06;38.82;96151.72;6133488;28;103275;-68
2022/10/07 06:30:09;;;;;;;9.93;4.90;;;;;;;21.15;39.60;96150.84;6122846;28;103662;-68
2022/10/07 06:33:12;;;;;;;6.03;5.40;;;;;;;21.17;38.68;96142.59;6133855;28;103416;-67
2022/10/07 06:36:18;;;;;;;5.47;4.43;;;;;;;21.28;38.51;96152.16;6134062;28;103127;-68
2022/10/07 06:39:21;;;;;;;5.40;4.90;;;;;;;21.34;38.09;96152.91;6130266;28;103185;-68
2022/10/07 06:42:24;;;;;;;5.60;4.40;;;;;;;21.41;38.41;96156.88;6131814;28;103564;-68
2022/10/07 06:45:30;;;;;;;6.53;4.93;;;;;;;21.46;38.27;96164.84;6137955;28;103729;-69
2022/10/07 06:48:34;;;;;;;6.53;5.00;;;;;;;21.52;38.16;96166.44;6137200;28;103712;-67
2022/10/07 06:51:39;;;;;;;5.40;4.90;;;;;;;21.60;38.21;96173.03;6126725;28;104106;-69
2022/10/07 06:54:42;;;;;;;5.83;4.93;;;;;;;21.65;38.17;96177.53;6138160;28;104899;-68
2022/10/07 06:57:45;;;;;;;7.60;4.80;;;;;;;21.71;37.71;96176.44;6137766;28;102886;-68
2022/10/07 07:00:50;;;;;;;6.70;5.13;;;;;;;21.75;37.58;96180.16;6137192;28;103225;-68
2022/10/07 07:03:54;;;;;;;5.10;4.60;;;;;;;21.78;37.99;96182.25;6126324;28;102867;-67
2022/10/07 07:06:58;;;;;;;5.83;4.77;;;;;;;21.83;37.77;96187.59;6137134;28;104262;-69
2022/10/07 07:10:02;;;;;;;5.93;4.80;;;;;;;21.87;37.74;96178.00;6137727;28;103679;-69
2022/10/07 07:13:06;;;;;;;7.23;4.80;;;;;;;21.97;38.27;96177.09;6136515;28;103097;-67
2022/10/07 07:16:09;;;;;;;6.80;5.30;;;;;;;21.98;38.33;96173.38;6127823;28;103012;-69
2022/10/07 07:19:13;;;;;;;6.60;5.43;;;;;;;21.98;38.20;96170.69;6136371;28;103653;-68
2022/10/07 07:22:18;;;;;;;10.47;5.47;;;;;;;22.01;38.20;96172.81;6137151;28;102771;-66
2022/10/07 07:25:21;;;;;;;6.10;5.20;;;;;;;22.02;38.50;96169.91;6126295;28;106005;-68
2022/10/07 07:28:24;;;;;;;6.60;5.90;;;;;;;22.05;38.26;96169.34;6136330;28;103106;-68
2022/10/07 07:31:28;;;;;;;7.93;5.37;;;;;;;22.06;38.36;96165.59;6136992;28;103084;-68
2022/10/07 07:34:32;;;;;;;6.67;5.90;;;;;;;22.11;38.28;96165.53;6136316;28;103115;-66
2022/10/07 07:37:37;;;;;;;8.60;6.40;;;;;;;22.13;38.62;96161.81;6126481;28;102866;-68
2022/10/07 07:40:40;;;;;;;6.90;5.80;;;;;;;22.18;38.01;96165.25;6136315;28;102845;-68
2022/10/07 07:43:43;;;;;;;6.37;5.73;;;;;;;22.21;38.22;96161.22;6136069;28;104878;-68
2022/10/07 07:46:50;;;;;;;6.77;6.17;;;;;;;22.21;38.33;96162.03;6136142;28;103355;-68
2022/10/07 07:49:53;;;;;;;6.90;6.30;;;;;;;22.25;37.63;96157.72;6124273;28;103203;-67
2022/10/07 07:52:59;;;;;;;7.53;6.83;;;;;;;22.27;38.16;96144.09;6135606;28;103106;-67
2022/10/07 07:56:02;;;;;;;6.57;5.93;;;;;;;22.30;38.08;96154.19;6136269;28;103129;-69
2022/10/07 07:59:06;;;;;;;10.13;6.53;;;;;;;22.35;38.00;96156.84;6130665;28;102743;-68
2022/10/07 08:02:10;;;;;;;7.80;7.00;;;;;;;22.37;37.53;96150.16;6130635;28;103392;-70
2022/10/07 08:05:14;;;;;;;8.20;7.07;;;;;;;22.37;37.98;96144.81;6135590;28;102995;-69
2022/10/07 08:08:24;;;;;;;8.53;7.63;;;;;;;22.38;37.34;96145.63;6136321;28;105758;-70
2022/10/07 08:11:28;;;;;;;8.83;8.03;;;;;;;22.42;37.86;96143.97;6125288;28;104955;-68
2022/10/07 08:14:31;;;;;;;8.13;7.30;;;;;;;22.42;38.00;96134.09;6136085;28;102819;-69
2022/10/07 08:17:34;;;;;;;11.90;8.20;;;;;;;22.45;37.72;96130.06;6135589;28;103073;-67
2022/10/07 08:20:37;;;;;;;10.03;8.43;;;;;;;22.45;37.88;96135.41;6135229;28;104277;-67
2022/10/07 08:23:42;;;;;;;8.33;7.27;;;;;;;22.46;37.64;96131.66;6124784;28;103250;-67
2022/10/07 08:26:46;;;;;;;9.20;8.30;;;;;;;22.49;37.41;96124.97;6135425;28;103082;-68
2022/10/07 08:29:50;;;;;;;8.67;7.77;;;;;;;22.49;37.70;96120.41;6135569;28;103291;-68
2022/10/07 08:32:52;;;;;;;8.83;8.03;;;;;;;22.50;37.49;96108.69;6130300;28;103450;-67
2022/10/07 08:36:04;;;;;;;8.53;7.73;;;;;;;22.48;37.64;96113.50;6130097;28;103289;-67
2022/10/07 08:39:10;;;;;;;9.00;8.07;;;;;;;22.51;37.27;96110.25;6135342;28;103282;-68
2022/10/07 08:42:22;;;;;;;8.63;7.70;;;;;;;22.46;37.61;96101.53;6135646;28;103689;-68
2022/10/07 08:45:30;;;;;;;8.60;7.80;;;;;;;22.47;37.30;96095.13;6124360;28;103228;-68
2022/10/07 08:48:38;;;;;;;8.33;7.53;;;;;;;22.43;37.85;96089.56;6135114;28;102825;-70
2022/10/07 08:51:47;;;;;;;9.23;8.33;;;;;;;22.44;37.94;96096.47;6134269;28;103393;-67
2022/10/07 08:54:51;;;;;;;9.10;7.90;;;;;;;22.41;37.68;96097.84;6134717;28;103515;-69
2022/10/07 08:58:11;;;;;;;9.20;8.40;;;;;;;22.41;37.43;96086.38;6125152;28;103066;-69
2022/10/07 09:01:24;;;;;;;9.40;8.33;;;;;;;22.40;38.13;96090.13;6134412;28;103019;-68
2022/10/07 09:04:43;;;;;;;9.20;8.30;;;;;;;22.39;37.61;96086.66;6133597;28;103402;-68
2022/10/07 09:07:51;;;;;;;9.93;8.37;;;;;;;22.38;37.87;96073.59;6125489;28;105933;-68
2022/10/07 09:11:14;;;;;;;9.03;8.30;;;;;;;22.36;37.79;96067.75;6134392;28;103188;-68
2022/10/07 09:14:25;;;;;;;10.67;9.43;;;;;;;22.32;38.32;96064.06;6134573;28;103025;-69
2022/10/07 09:17:33;;;;;;;9.73;8.93;;;;;;;22.29;38.23;96065.41;6135344;28;103373;-68
2022/10/07 09:20:44;;;;;;;10.53;9.60;;;;;;;22.28;38.52;96053.16;6124108;28;103018;-69
2022/10/07 09:23:50;;;;;;;9.73;8.83;;;;;;;22.28;38.02;96053.16;6133401;28;103240;-68
2022/10/07 09:26:58;;;;;;;9.57;8.60;;;;;;;22.28;37.99;96050.50;6135263;28;103335;-69
2022/10/07 09:30:02;;;;;;;9.00;8.20;;;;;;;22.29;37.85;96043.28;6129238;28;102827;-68
2022/10/07 09:33:13;;;;;;;8.77;7.87;;;;;;;22.30;38.01;96042.22;6129560;28;103271;-68
2022/10/07 09:36:17;;;;;;;8.93;8.00;;;;;;;22.28;38.18;96041.69;6134369;28;103188;-68
2022/10/07 09:39:23;;;;;;;8.73;7.87;;;;;;;22.29;38.27;96043.28;6133766;28;103084;-68
2022/10/07 09:42:34;;;;;;;8.23;7.53;;;;;;;22.31;37.64;96049.91;6123469;28;102923;-68
2022/10/07 09:45:45;;;;;;;8.63;7.83;;;;;;;22.30;37.73;96042.22;6134278;28;103073;-68
2022/10/07 09:48:52;;;;;;;8.40;7.70;;;;;;;22.30;37.85;96031.53;6134725;28;102865;-68
2022/10/07 09:51:59;;;;;;;7.13;6.60;;;;;;;22.30;37.76;96031.53;6133415;28;104071;-67
2022/10/07 09:55:36;;;;;;;8.53;7.03;;;;;;;22.30;37.91;96029.66;6122141;28;102869;-68
2022/10/07 09:58:40;;;;;;;8.50;7.70;;;;;;;22.33;38.26;96022.97;6134205;28;103130;-68
2022/10/07 10:01:49;;;;;;;7.23;6.63;;;;;;;22.33;37.87;96023.75;6133771;28;103075;-68
2022/10/07 10:04:55;;;;;;;6.77;6.27;;;;;;;22.34;38.39;96016.56;6122880;28;104730;-68
2022/10/07 10:08:00;;;;;;;6.90;6.27;;;;;;;22.33;37.83;96009.63;6133583;28;103271;-68
2022/10/07 10:11:05;;;;;;;7.20;6.53;;;;;;;22.33;37.82;96007.75;6134172;28;103613;-68
2022/10/07 10:14:28;;;;;;;7.07;6.37;;;;;;;22.32;38.28;95997.38;6132796;28;105049;-68
2022/10/07 10:17:33;;;;;;;6.27;5.77;;;;;;;22.31;38.35;95996.59;6122671;28;103156;-68
2022/10/07 10:20:38;;;;;;;6.93;6.23;;;;;;;22.30;38.02;95986.22;6133892;28;103535;-68
2022/10/07 10:23:46;;;;;;;7.67;6.00;;;;;;;22.31;38.26;95985.94;6133729;28;103781;-68
2022/10/07 10:27:00;;;;;;;6.90;6.33;;;;;;;22.29;38.01;95988.09;6127255;28;103222;-68
2022/10/07 10:30:06;;;;;;;6.43;5.93;;;;;;;22.28;38.02;95985.72;6132626;28;104197;-68
2022/10/07 10:33:20;;;;;;;5.87;5.27;;;;;;;22.26;37.92;95974.53;6133613;28;103456;-70
2022/10/07 10:36:26;;;;;;;5.67;5.17;;;;;;;22.24;37.93;95972.16;6133018;28;103213;-69
2022/10/07 10:39:42;;;;;;;6.27;5.77;;;;;;;22.22;37.81;95968.19;6122487;28;103903;-68
2022/10/07 10:43:10;;;;;;;6.00;5.40;;;;;;;22.23;37.76;95961.78;6133171;28;103352;-69
2022/10/07 10:46:34;;;;;;;6.40;5.90;;;;;;;22.21;37.83;95966.59;6132774;28;103066;-68
2022/10/07 10:49:51;;;;;;;5.40;5.00;;;;;;;22.19;37.97;95958.09;6125117;28;103006;-67
2022/10/07 10:53:06;;;;;;;6.00;5.50;;;;;;;22.19;37.65;95958.09;6132853;28;103314;-70
2022/10/07 10:56:25;;;;;;;5.77;5.23;;;;;;;22.15;38.09;95949.06;6133653;28;104251;-69
2022/10/07 10:59:55;;;;;;;5.43;5.03;;;;;;;22.13;38.03;95952.00;6132484;28;102980;-69
2022/10/07 11:03:23;;;;;;;5.53;5.03;;;;;;;22.10;37.62;95939.25;6122426;28;104128;-68
2022/10/07 11:06:29;;;;;;;5.40;4.90;;;;;;;22.09;37.67;95937.66;6132820;28;102895;-68
2022/10/07 11:09:38;;;;;;;6.30;5.80;;;;;;;22.07;37.98;95937.94;6132856;28;103354;-67
2022/10/07 11:12:45;;;;;;;4.83;4.20;;;;;;;22.06;37.66;95924.91;6123505;28;106129;-68
2022/10/07 11:15:54;;;;;;;5.73;5.20;;;;;;;22.05;37.60;95925.97;6132439;28;103041;-69
2022/10/07 11:19:04;;;;;;;5.47;4.97;;;;;;;22.02;37.99;95922.03;6132876;28;103157;-68
2022/10/07 11:22:15;;;;;;;4.87;4.37;;;;;;;22.02;37.82;95921.22;6132383;28;103256;-68
2022/10/07 11:25:27;;;;;;;5.13;4.63;;;;;;;22.00;37.99;95916.16;6122971;28;103393;-67
2022/10/07 11:28:35;;;;;;;4.30;4.00;;;;;;;22.00;37.55;95916.16;6137136;28;103198;-68
2022/10/07 11:31:45;;;;;;;5.10;4.70;;;;;;;21.99;38.06;95911.09;6136255;28;103326;-67
2022/10/07 11:34:55;;;;;;;4.70;4.40;;;;;;;21.95;37.73;95905.56;6130864;28;104213;-67
2022/10/07 11:38:06;;;;;;;4.40;4.10;;;;;;;21.95;38.07;95899.44;6132171;28;103616;-67
2022/10/07 11:41:16;;;;;;;4.73;4.33;;;;;;;21.90;38.26;95905.63;6136923;28;105440;-67
2022/10/07 11:44:26;;;;;;;4.60;4.30;;;;;;;21.88;37.94;95888.34;6136392;28;103400;-66
2022/10/07 11:47:36;;;;;;;4.37;3.97;;;;;;;21.86;38.11;95893.94;6126559;28;103284;-68
2022/10/07 11:50:45;;;;;;;4.40;4.00;;;;;;;21.85;37.79;95889.69;6136225;28;103236;-67
2022/10/07 11:53:49;;;;;;;4.37;3.97;;;;;;;21.84;38.28;95885.41;6136474;28;103112;-67
2022/10/07 11:56:54;;;;;;;4.80;4.40;;;;;;;21.84;38.10;95888.06;6135784;28;103429;-65
2022/10/07 12:00:00;;;;;;;4.40;4.00;;;;;;;21.83;38.07;95881.16;6125412;28;103365;-68
2022/10/07 12:03:13;;;;;;;4.47;4.07;;;;;;;21.82;37.87;95879.59;6135344;28;103292;-67
2022/10/07 12:06:17;;;;;;;4.70;4.20;;;;;;;21.80;38.24;95884.38;6135320;28;103269;-67
2022/10/07 12:09:55;;;;;;;4.67;4.17;;;;;;;21.80;38.39;95877.16;6126507;28;102963;-67
2022/10/07 12:13:01;;;;;;;3.90;3.27;;;;;;;21.77;38.45;95883.06;6135772;28;103380;-68
2022/10/07 12:16:52;;;;;;;4.00;3.60;;;;;;;21.78;38.21;95881.19;6136119;28;103060;-69
2022/10/07 12:20:36;;;;;;;4.00;3.70;;;;;;;21.77;38.01;95884.94;6131439;28;103396;-68
2022/10/07 12:23:42;;;;;;;3.87;3.53;;;;;;;21.75;38.08;95879.91;6135669;28;103264;-67
2022/10/07 12:26:48;;;;;;;3.80;3.50;;;;;;;21.76;38.41;95878.81;6136446;28;103331;-67
2022/10/07 12:30:00;;;;;;;3.73;3.43;;;;;;;21.77;38.06;95879.63;6136345;28;103185;-66
2022/10/07 12:33:15;;;;;;;4.07;3.77;;;;;;;21.82;38.46;95882.25;6126181;28;105931;-67
2022/10/07 12:36:28;;;;;;;3.50;3.20;;;;;;;21.82;38.41;95876.91;6133705;28;103404;-67
2022/10/07 12:39:37;;;;;;;4.20;3.90;;;;;;;21.81;38.59;95868.09;6135917;28;103017;-67
2022/10/07 12:42:46;;;;;;;3.47;3.17;;;;;;;21.83;37.95;95867.06;6131402;28;105913;-67
2022/10/07 12:45:50;;;;;;;4.10;3.47;;;;;;;21.82;37.89;95860.94;6129759;28;103367;-67
2022/10/07 12:48:59;;;;;;;4.00;3.70;;;;;;;21.81;38.13;95865.44;6135184;28;103063;-68
2022/10/07 12:52:06;;;;;;;3.50;3.20;;;;;;;21.82;37.98;95863.59;6134940;28;103639;-68
2022/10/07 12:55:16;;;;;;;3.47;3.17;;;;;;;21.82;38.42;95866.25;6124112;28;103079;-68
2022/10/07 13:02:54;;;;;;;3.73;3.43;;;;;;;21.79;38.16;95850.81;6135047;28;104119;-67
2022/10/07 13:06:33;;;;;;;3.93;3.63;;;;;;;21.79;38.27;95851.59;6124117;28;103249;-67
2022/10/07 13:10:13;;;;;;;3.30;3.10;;;;;;;21.77;38.37;95851.09;6134233;28;103729;-67
2022/10/07 13:13:27;;;;;;;3.70;3.40;;;;;;;21.80;38.27;95841.75;6133643;28;103381;-67
2022/10/07 13:16:40;;;;;;;3.80;3.50;;;;;;;21.78;38.58;95847.34;6129541;28;103090;-67
2022/10/07 13:19:49;;;;;;;3.77;3.47;;;;;;;21.78;38.37;95846.56;6129799;28;104900;-68
2022/10/07 13:22:53;;;;;;;2.97;2.77;;;;;;;21.75;38.28;95839.94;6133899;28;103603;-68
2022/10/07 13:25:58;;;;;;;3.67;3.37;;;;;;;21.76;38.73;95836.19;6134554;28;103332;-68
2022/10/07 13:29:03;;;;;;;3.50;3.23;;;;;;;21.75;38.78;95833.81;6124353;28;104519;-68
2022/10/07 13:32:12;;;;;;;3.73;3.10;;;;;;;21.74;38.73;95842.88;6134669;28;103006;-68
2022/10/07 13:35:30;;;;;;;4.10;3.10;;;;;;;21.71;38.59;95844.25;6133629;28;103041;-68
2022/10/07 13:38:38;;;;;;;3.40;3.20;;;;;;;21.71;38.46;95838.13;6133952;28;102777;-69
2022/10/07 13:41:45;;;;;;;3.87;3.57;;;;;;;21.72;38.51;95834.38;6122948;28;103239;-68
2022/10/07 13:44:51;;;;;;;3.43;3.10;;;;;;;21.71;38.58;95833.59;6133980;28;102963;-68
2022/10/07 13:47:56;;;;;;;3.70;3.30;;;;;;;21.72;38.85;95834.38;6133560;28;104097;-68
2022/10/07 13:51:00;;;;;;;3.40;3.20;;;;;;;21.71;38.71;95833.59;6125526;28;103237;-68
2022/10/07 13:54:06;;;;;;;3.30;3.00;;;;;;;21.70;38.65;95824.03;6133536;28;103261;-68
2022/10/07 13:57:10;;;;;;;3.30;2.90;;;;;;;21.71;39.09;95830.13;6134024;28;103361;-69
2022/10/07 14:00:18;;;;;;;3.10;2.90;;;;;;;21.68;38.96;95820.84;6134599;28;103871;-68
2022/10/07 14:03:21;;;;;;;3.63;3.33;;;;;;;21.69;38.92;95829.63;6122746;28;103973;-68
2022/10/07 14:06:37;;;;;;;3.10;2.90;;;;;;;21.69;38.50;95824.31;6132818;28;103204;-68
2022/10/07 14:09:46;;;;;;;3.17;2.90;;;;;;;21.68;38.60;95828.84;6134216;28;104135;-68
2022/10/07 14:12:55;;;;;;;2.90;2.70;;;;;;;21.69;39.02;95824.31;6132527;28;103014;-68
2022/10/07 14:16:00;;;;;;;3.30;3.00;;;;;;;21.68;38.85;95828.03;6125406;28;103907;-69
2022/10/07 14:19:03;;;;;;;2.90;2.70;;;;;;;21.68;38.97;95826.19;6133088;28;103236;-68
2022/10/07 14:22:18;;;;;;;3.20;3.00;;;;;;;21.69;38.80;95818.97;6132905;28;103378;-68
2022/10/07 14:25:26;;;;;;;3.40;3.17;;;;;;;21.68;38.95;95820.06;6122501;28;103220;-68
2022/10/07 14:28:31;;;;;;;2.90;2.70;;;;;;;21.67;39.29;95818.44;6132860;28;103640;-68
2022/10/07 14:38:25;;;;;;;3.13;2.93;;;;;;;21.68;39.02;95822.72;6122606;28;103976;-67
2022/10/07 14:41:30;;;;;;;3.70;3.13;;;;;;;21.65;39.34;95812.59;6133355;28;103526;-68
2022/10/07 14:44:33;;;;;;;3.70;3.30;;;;;;;21.63;39.09;95812.09;6136521;28;103076;-68
2022/10/07 14:47:37;;;;;;;3.00;2.80;;;;;;;21.66;38.86;95819.53;6127859;28;103404;-68
2022/10/07 14:50:41;;;;;;;2.83;2.63;;;;;;;21.65;39.20;95812.59;6128584;28;102706;-70